createdAt,value
2022-12-14T00:01:31.406Z,59.10
2022-12-14T00:04:36.829Z,58.37
2022-12-14T00:07:43.076Z,58.41
2022-12-14T00:10:51.282Z,57.08
2022-12-14T00:14:00.126Z,57.72
2022-12-14T00:17:05.717Z,58.03
2022-12-14T00:20:13.085Z,57.81
2022-12-14T00:23:19.182Z,58.13
2022-12-14T00:26:31.589Z,58.20
2022-12-14T00:29:37.260Z,58.36
2022-12-14T00:32:44.075Z,58.36
2022-12-14T00:35:49.550Z,58.28
2022-12-14T00:38:55.890Z,58.22
2022-12-14T00:42:04.216Z,58.52
2022-12-14T00:45:12.690Z,58.47
2022-12-14T00:48:20.465Z,58.35
2022-12-14T00:51:26.997Z,58.55
2022-12-14T00:54:32.640Z,58.32
2022-12-14T00:57:41.736Z,58.55
2022-12-14T01:00:48.499Z,58.96
2022-12-14T01:04:14.955Z,59.15
2022-12-14T01:07:20.545Z,59.47
2022-12-14T01:10:27.105Z,59.29
2022-12-14T01:13:35.471Z,59.38
2022-12-14T01:16:42.350Z,59.40
2022-12-14T01:19:49.334Z,59.66
2022-12-14T01:22:58.398Z,59.44
2022-12-14T01:26:03.749Z,59.45
2022-12-14T01:29:16.478Z,59.32
2022-12-14T01:32:22.660Z,58.79
2022-12-14T01:35:28.829Z,58.98
2022-12-14T01:38:34.405Z,58.77
2022-12-14T01:41:44.237Z,58.91
2022-12-14T01:44:59.560Z,58.90
2022-12-14T01:48:08.356Z,59.06
2022-12-14T01:51:14.098Z,58.95
2022-12-14T01:54:20.432Z,59.45
2022-12-14T01:57:31.452Z,59.59
2022-12-14T02:00:41.587Z,59.40
2022-12-14T02:03:54.675Z,59.21
2022-12-14T02:07:01.645Z,59.19
2022-12-14T02:10:11.273Z,59.44
2022-12-14T02:13:31.116Z,59.32
2022-12-14T02:16:41.586Z,58.99
2022-12-14T02:19:49.597Z,58.31
2022-12-14T02:23:53.773Z,58.47
2022-12-14T02:27:42.233Z,58.29
2022-12-14T02:31:04.833Z,58.27
2022-12-14T02:34:27.091Z,58.11
2022-12-14T02:37:49.052Z,57.94
2022-12-14T02:41:16.697Z,58.17
2022-12-14T02:44:34.609Z,57.97
2022-12-14T02:47:56.841Z,57.97
2022-12-14T02:51:23.039Z,58.61
2022-12-14T02:54:41.583Z,58.57
2022-12-14T02:57:56.982Z,58.64
2022-12-14T03:01:04.045Z,59.28
2022-12-14T03:04:12.826Z,59.07
2022-12-14T03:07:48.761Z,58.70
2022-12-14T03:11:01.405Z,59.36
2022-12-14T03:14:18.237Z,59.50
2022-12-14T03:17:30.642Z,59.81
2022-12-14T03:20:47.621Z,59.47
2022-12-14T03:23:58.405Z,59.73
2022-12-14T03:27:14.122Z,60.29
2022-12-14T03:30:51.355Z,60.48
2022-12-14T03:33:56.991Z,60.57
2022-12-14T03:37:16.363Z,59.55
2022-12-14T03:40:34.031Z,59.61
2022-12-14T03:43:56.526Z,59.90
2022-12-14T03:47:27.165Z,59.97
2022-12-14T03:50:45.371Z,59.81
2022-12-14T03:54:10.204Z,60.06
2022-12-14T03:57:41.246Z,60.15
2022-12-14T04:01:01.224Z,60.07
2022-12-14T04:04:18.583Z,59.54
2022-12-14T04:07:40.422Z,59.39
2022-12-14T04:11:11.878Z,59.78
2022-12-14T04:14:42.795Z,59.65
2022-12-14T04:18:10.796Z,59.79
2022-12-14T04:21:27.500Z,59.85
2022-12-14T04:25:00.241Z,59.65
2022-12-14T04:28:32.378Z,59.61
2022-12-14T04:31:42.799Z,59.68
2022-12-14T04:34:56.924Z,59.76
2022-12-14T04:38:13.324Z,59.47
2022-12-14T04:41:29.237Z,59.10
2022-12-14T04:44:43.465Z,59.08
2022-12-14T04:48:03.041Z,59.17
2022-12-14T04:51:18.208Z,59.63
2022-12-14T04:54:35.333Z,58.97
2022-12-14T04:57:51.715Z,58.99
2022-12-14T05:01:36.296Z,59.13
2022-12-14T05:05:02.326Z,59.01
2022-12-14T05:08:25.425Z,59.20
2022-12-14T05:11:53.736Z,59.68
2022-12-14T05:15:10.858Z,58.81
2022-12-14T05:18:20.542Z,59.25
2022-12-14T05:21:43.294Z,59.21
2022-12-14T05:24:49.384Z,59.22
2022-12-14T05:27:56.861Z,58.94
2022-12-14T05:31:02.437Z,59.49
2022-12-14T05:34:12.119Z,59.22
2022-12-14T05:37:18.546Z,59.62
2022-12-14T05:40:25.122Z,59.74
2022-12-14T05:43:30.760Z,60.27
2022-12-14T05:46:37.319Z,59.44
2022-12-14T05:49:45.932Z,59.93
2022-12-14T05:52:56.477Z,59.76
2022-12-14T05:56:01.884Z,60.47
2022-12-14T05:59:08.148Z,59.56
2022-12-14T06:02:13.787Z,59.62
2022-12-14T06:05:22.942Z,59.33
2022-12-14T06:08:28.705Z,59.61
2022-12-14T06:11:34.886Z,59.42
2022-12-14T06:14:40.911Z,59.27
2022-12-14T06:17:48.290Z,59.48
2022-12-14T06:20:56.523Z,59.52
2022-12-14T06:24:03.569Z,58.89
2022-12-14T06:27:09.139Z,58.77
2022-12-14T06:30:16.495Z,58.36
2022-12-14T06:33:21.984Z,58.73
2022-12-14T06:36:34.821Z,58.41
2022-12-14T06:39:41.381Z,58.60
2022-12-14T06:42:50.269Z,58.35
2022-12-14T06:45:55.893Z,57.76
2022-12-14T06:49:02.342Z,58.78
2022-12-14T06:52:10.654Z,58.64
2022-12-14T06:55:17.127Z,58.31
2022-12-14T06:58:22.548Z,58.26
2022-12-14T07:01:29.776Z,58.13
2022-12-14T07:04:35.690Z,58.07
2022-12-14T07:07:45.974Z,58.07
2022-12-14T07:10:51.400Z,58.47
2022-12-14T07:14:00.856Z,58.83
2022-12-14T07:17:06.362Z,58.54
2022-12-14T07:20:13.725Z,58.28
2022-12-14T07:23:27.570Z,58.24
2022-12-14T07:26:34.767Z,58.25
2022-12-14T07:29:41.092Z,58.05
2022-12-14T07:32:47.437Z,57.41
2022-12-14T07:35:53.389Z,57.63
2022-12-14T07:39:02.543Z,57.64
2022-12-14T07:42:08.110Z,57.44
2022-12-14T07:45:14.540Z,57.11
2022-12-14T07:48:20.401Z,57.18
2022-12-14T07:51:30.693Z,57.32
2022-12-14T07:54:38.880Z,56.89
2022-12-14T08:00:50.707Z,56.46
2022-12-14T08:04:01.092Z,56.66
2022-12-14T08:07:06.508Z,56.39
2022-12-14T08:10:15.566Z,56.00
2022-12-14T08:13:20.980Z,55.71
2022-12-14T08:16:29.018Z,56.05
2022-12-14T08:19:34.474Z,55.84
2022-12-14T08:22:40.673Z,54.76
2022-12-14T08:25:55.997Z,55.09
2022-12-14T08:29:02.196Z,54.75
2022-12-14T08:32:08.736Z,54.53
2022-12-14T08:35:15.026Z,54.81
2022-12-14T08:38:20.560Z,55.02
2022-12-14T08:41:31.634Z,54.20
2022-12-14T08:44:37.069Z,54.37
2022-12-14T08:47:43.374Z,54.12
2022-12-14T08:50:49.896Z,53.67
2022-12-14T08:53:58.803Z,54.19
2022-12-14T08:57:07.577Z,53.90
2022-12-14T09:00:16.458Z,53.92
2022-12-14T09:03:21.937Z,54.19
2022-12-14T09:06:29.480Z,53.17
2022-12-14T09:09:37.509Z,53.01
2022-12-14T09:12:46.571Z,52.79
2022-12-14T09:16:01.277Z,53.23
2022-12-14T09:19:07.928Z,53.36
2022-12-14T09:22:14.537Z,53.55
2022-12-14T09:25:21.168Z,53.64
2022-12-14T09:28:30.246Z,53.52
2022-12-14T09:31:36.767Z,53.97
2022-12-14T09:34:42.518Z,54.04
2022-12-14T09:37:48.950Z,53.01
2022-12-14T09:41:03.084Z,53.17
2022-12-14T09:44:28.657Z,52.73
2022-12-14T09:47:44.588Z,53.77
2022-12-14T09:50:53.881Z,52.75
2022-12-14T09:54:10.196Z,53.01
2022-12-14T09:57:27.400Z,53.35
2022-12-14T10:00:48.203Z,52.50
2022-12-14T10:04:15.047Z,51.47
2022-12-14T10:07:36.480Z,52.02
2022-12-14T10:10:59.692Z,52.57
2022-12-14T10:14:22.709Z,52.33
2022-12-14T10:18:01.542Z,52.29
2022-12-14T10:21:16.963Z,51.81
2022-12-14T10:24:31.202Z,50.69
2022-12-14T10:28:09.235Z,51.60
2022-12-14T10:31:17.240Z,50.29
2022-12-14T10:34:36.253Z,49.29
2022-12-14T10:37:48.519Z,49.55
2022-12-14T10:41:02.815Z,50.62
2022-12-14T10:44:28.225Z,49.60
2022-12-14T10:47:43.792Z,50.24
2022-12-14T10:51:04.968Z,48.86
2022-12-14T10:54:28.787Z,49.36
2022-12-14T10:57:35.481Z,49.36
2022-12-14T11:00:42.181Z,49.59
2022-12-14T11:03:55.468Z,48.97
2022-12-14T11:07:07.900Z,49.38
2022-12-14T11:10:21.334Z,49.46
2022-12-14T11:13:27.134Z,49.57
2022-12-14T11:16:40.166Z,50.23
2022-12-14T11:19:46.546Z,49.60
2022-12-14T11:23:00.035Z,49.58
2022-12-14T11:26:12.811Z,50.57
2022-12-14T11:29:25.609Z,50.34
2022-12-14T11:32:31.164Z,50.57
2022-12-14T11:35:38.250Z,51.37
2022-12-14T11:38:59.020Z,51.03
2022-12-14T11:42:07.407Z,51.76
2022-12-14T11:45:33.388Z,50.95
2022-12-14T11:48:51.058Z,52.12
2022-12-14T11:52:09.675Z,51.95
2022-12-14T11:55:27.298Z,51.30
2022-12-14T11:58:40.249Z,52.15
2022-12-14T12:01:47.507Z,51.72
2022-12-14T12:05:00.771Z,51.44
2022-12-14T12:08:07.853Z,52.16
2022-12-14T12:11:26.489Z,53.17
2022-12-14T12:14:39.105Z,53.33
2022-12-14T12:17:50.040Z,54.01
2022-12-14T12:21:07.186Z,52.96
2022-12-14T12:24:25.409Z,53.10
2022-12-14T12:27:37.108Z,53.27
2022-12-14T12:30:53.236Z,52.79
2022-12-14T12:34:07.155Z,51.27
2022-12-14T12:37:28.172Z,52.15
2022-12-14T12:40:42.146Z,52.48
2022-12-14T12:43:57.619Z,53.50
2022-12-14T12:47:32.171Z,52.32
2022-12-14T12:50:52.372Z,52.36
2022-12-14T12:54:08.159Z,52.14
2022-12-14T12:57:17.225Z,52.30
2022-12-14T13:00:30.733Z,51.27
2022-12-14T13:03:45.978Z,52.29
2022-12-14T13:07:00.729Z,51.82
2022-12-14T13:10:18.706Z,51.77
2022-12-14T13:13:34.224Z,51.89
2022-12-14T13:16:44.254Z,52.03
2022-12-14T13:19:55.566Z,52.81
2022-12-14T13:23:35.977Z,53.07
2022-12-14T13:27:25.274Z,52.25
2022-12-14T13:31:00.338Z,52.60
2022-12-14T13:34:38.062Z,53.85
2022-12-14T13:38:11.315Z,54.24
2022-12-14T13:41:35.277Z,53.85
2022-12-14T13:44:59.195Z,54.22
2022-12-14T13:48:20.729Z,54.52
2022-12-14T13:51:35.633Z,54.98
2022-12-14T13:54:43.650Z,54.37
2022-12-14T13:57:49.538Z,54.92
2022-12-14T14:01:04.807Z,55.06
2022-12-14T14:04:26.995Z,55.08
2022-12-14T14:07:54.755Z,55.75
2022-12-14T14:11:28.550Z,55.37
2022-12-14T14:14:53.814Z,55.33
2022-12-14T14:18:27.002Z,56.19
2022-12-14T14:22:06.063Z,55.69
2022-12-14T14:25:43.060Z,56.53
2022-12-14T14:29:22.900Z,56.55
2022-12-14T14:32:41.240Z,57.73
2022-12-14T14:35:49.782Z,57.39
2022-12-14T14:38:58.564Z,57.58
2022-12-14T14:42:18.464Z,57.66
2022-12-14T14:45:42.238Z,57.61
2022-12-14T14:48:57.714Z,57.49
2022-12-14T14:53:03.263Z,59.10
2022-12-14T14:56:37.620Z,58.57
2022-12-14T14:59:50.801Z,59.35
2022-12-14T15:03:00.012Z,59.33
2022-12-14T15:06:06.529Z,59.75
2022-12-14T15:09:23.976Z,59.08
2022-12-14T15:12:44.591Z,59.62
2022-12-14T15:15:57.488Z,60.23
2022-12-14T15:19:33.734Z,60.12
2022-12-14T15:22:47.821Z,59.88
2022-12-14T15:26:03.499Z,60.25
2022-12-14T15:29:22.790Z,60.45
2022-12-14T15:32:32.287Z,60.59
2022-12-14T15:35:43.386Z,60.02
2022-12-14T15:38:58.485Z,60.22
2022-12-14T15:42:08.481Z,60.49
2022-12-14T15:45:21.620Z,61.33
2022-12-14T15:48:34.855Z,60.94
2022-12-14T15:51:46.816Z,61.64
2022-12-14T15:54:54.025Z,60.75
2022-12-14T15:58:01.441Z,60.97
2022-12-14T16:01:16.581Z,60.41
2022-12-14T16:04:29.720Z,60.78
2022-12-14T16:07:42.451Z,61.35
2022-12-14T16:10:53.480Z,60.97
2022-12-14T16:14:04.590Z,61.00
2022-12-14T16:17:12.087Z,61.32
2022-12-14T16:20:29.792Z,61.79
2022-12-14T16:23:45.260Z,61.46
2022-12-14T16:27:02.598Z,61.31
2022-12-14T16:30:28.892Z,62.07
2022-12-14T16:33:39.680Z,61.32
2022-12-14T16:37:14.579Z,62.35
2022-12-14T16:40:36.483Z,62.47
2022-12-14T16:43:45.015Z,61.93
2022-12-14T16:47:31.837Z,61.89
2022-12-14T16:50:56.427Z,62.35
2022-12-14T16:54:33.879Z,62.17
2022-12-14T16:57:53.262Z,61.39
2022-12-14T17:01:06.352Z,61.20
2022-12-14T17:04:15.887Z,61.61
2022-12-14T17:07:29.345Z,61.55
2022-12-14T17:10:39.341Z,61.36
2022-12-14T17:13:45.743Z,61.72
2022-12-14T17:17:04.101Z,61.28
2022-12-14T17:20:20.587Z,61.80
2022-12-14T17:23:27.112Z,61.79
2022-12-14T17:26:36.484Z,62.51
2022-12-14T17:29:42.199Z,62.33
2022-12-14T17:32:48.998Z,61.73
2022-12-14T17:35:55.423Z,62.50
2022-12-14T17:39:02.022Z,62.45
2022-12-14T17:42:15.811Z,61.02
2022-12-14T17:45:26.573Z,61.86
2022-12-14T17:48:32.551Z,61.98
2022-12-14T17:51:44.194Z,62.54
2022-12-14T17:54:50.201Z,62.39
2022-12-14T17:58:00.877Z,62.52
2022-12-14T18:01:08.721Z,62.86
2022-12-14T18:04:15.747Z,62.49
2022-12-14T18:07:21.615Z,62.89
2022-12-14T18:10:29.508Z,61.95
2022-12-14T18:13:37.840Z,61.64
2022-12-14T18:16:44.123Z,61.36
2022-12-14T18:19:49.877Z,62.05
2022-12-14T18:22:56.697Z,61.88
2022-12-14T18:26:05.462Z,61.98
2022-12-14T18:29:15.008Z,61.72
2022-12-14T18:32:20.532Z,63.00
2022-12-14T18:35:31.618Z,61.83
2022-12-14T18:38:37.083Z,62.41
2022-12-14T18:41:43.363Z,62.30
2022-12-14T18:44:52.307Z,62.54
2022-12-14T18:48:00.838Z,61.44
2022-12-14T18:51:07.811Z,61.54
2022-12-14T18:54:14.694Z,61.46
2022-12-14T18:57:20.116Z,62.53
2022-12-14T19:00:35.095Z,62.66
2022-12-14T19:03:40.881Z,62.23
2022-12-14T19:06:47.145Z,61.32
2022-12-14T19:09:53.069Z,62.00
2022-12-14T19:13:00.021Z,61.71
2022-12-14T19:16:10.246Z,62.16
2022-12-14T19:19:19.927Z,62.17
2022-12-14T19:22:29.635Z,62.18
2022-12-14T19:25:36.039Z,61.28
2022-12-14T19:28:41.610Z,62.28
2022-12-14T19:31:54.462Z,62.53
2022-12-14T19:35:00.539Z,61.94
2022-12-14T19:38:06.855Z,62.17
2022-12-14T19:41:17.747Z,62.31
2022-12-14T19:44:24.033Z,61.57
2022-12-14T19:47:32.187Z,62.12
2022-12-14T19:50:38.396Z,62.30
2022-12-14T19:53:48.984Z,62.63
2022-12-14T19:56:55.487Z,62.16
2022-12-14T20:00:01.306Z,61.93
2022-12-14T20:03:22.249Z,62.61
2022-12-14T20:06:27.932Z,62.22
2022-12-14T20:09:38.072Z,62.68
2022-12-14T20:12:46.097Z,62.11
2022-12-14T20:15:54.360Z,61.65
2022-12-14T20:19:02.501Z,62.17
2022-12-14T20:22:09.748Z,61.53
2022-12-14T20:25:15.197Z,61.57
2022-12-14T20:28:23.968Z,62.16
2022-12-14T20:31:29.563Z,62.15
2022-12-14T20:34:39.854Z,61.50
2022-12-14T20:37:45.314Z,61.81
2022-12-14T20:40:52.086Z,61.64
2022-12-14T20:43:57.994Z,62.73
2022-12-14T20:47:04.298Z,62.69
2022-12-14T20:50:12.755Z,61.94
2022-12-14T20:53:19.056Z,62.24
2022-12-14T20:56:24.841Z,62.87
2022-12-14T20:59:31.176Z,62.79
2022-12-14T21:02:37.006Z,62.96
2022-12-14T21:05:47.182Z,62.94
2022-12-14T21:09:05.906Z,62.39
2022-12-14T21:12:25.944Z,61.95
2022-12-14T21:15:31.392Z,62.49
2022-12-14T21:18:37.808Z,61.77
2022-12-14T21:21:51.604Z,62.26
2022-12-14T21:25:03.424Z,62.67
2022-12-14T21:28:10.228Z,62.32
2022-12-14T21:31:16.602Z,62.74
2022-12-14T21:34:26.099Z,63.33
2022-12-14T21:37:35.216Z,62.10
2022-12-14T21:40:56.462Z,62.48
2022-12-14T21:44:03.532Z,62.11
2022-12-14T21:47:13.507Z,62.93
2022-12-14T21:50:19.917Z,63.05
2022-12-14T21:53:34.999Z,62.98
2022-12-14T21:56:59.917Z,62.60
2022-12-14T22:00:07.337Z,62.96
2022-12-14T22:03:19.886Z,61.88
2022-12-14T22:06:25.305Z,62.71
2022-12-14T22:09:34.459Z,61.94
2022-12-14T22:12:39.988Z,61.81
2022-12-14T22:15:46.236Z,62.30
2022-12-14T22:18:54.889Z,62.43
2022-12-14T22:22:02.266Z,62.10
2022-12-14T22:25:11.822Z,62.42
2022-12-14T22:28:18.155Z,61.83
2022-12-14T22:31:24.277Z,61.27
2022-12-14T22:34:30.544Z,62.31
2022-12-14T22:37:36.327Z,61.39
2022-12-14T22:40:45.330Z,61.31
2022-12-14T22:43:50.817Z,61.29
2022-12-14T22:46:57.907Z,62.55
2022-12-14T22:50:03.241Z,62.70
2022-12-14T22:53:09.513Z,61.83
2022-12-14T22:56:27.592Z,62.61
2022-12-14T22:59:41.962Z,62.55
2022-12-14T23:02:49.725Z,61.06
2022-12-14T23:06:01.989Z,61.99
2022-12-14T23:09:24.151Z,61.30
2022-12-14T23:12:49.301Z,61.70
2022-12-14T23:16:10.443Z,62.15
2022-12-14T23:19:32.362Z,61.53
2022-12-14T23:22:53.281Z,61.51
2022-12-14T23:26:15.135Z,61.84
2022-12-14T23:29:39.605Z,61.46
2022-12-14T23:33:01.534Z,61.43
2022-12-14T23:36:23.153Z,61.39
2022-12-14T23:39:45.351Z,61.94
2022-12-14T23:43:06.544Z,62.24
2022-12-14T23:46:31.845Z,61.90
2022-12-14T23:49:53.129Z,61.63
2022-12-14T23:53:15.600Z,61.99
2022-12-14T23:56:36.818Z,62.25
2022-12-14T23:59:59.070Z,62.25
